sensor_id;sensor_type;location;lat;lon;timestamp;pressure;altitude;pressure_sealevel;temperature;humidity
49583;BME280;36329;48.816;44.624;2024-01-16T00:02:56;100838;;;0.6;100
49583;BME280;36329;48.816;44.624;2024-01-16T00:06:00;100840;;;0.5;100
49583;BME280;36329;48.816;44.624;2024-01-16T00:09:02;100850;;;0.6;100
49583;BME280;36329;48.816;44.624;2024-01-16T00:12:05;100844;;;0.6;100
49583;BME280;36329;48.816;44.624;2024-01-16T00:15:09;100846;;;0.5;100
49583;BME280;36329;48.816;44.624;2024-01-16T00:18:11;100853;;;0.6;100
49583;BME280;36329;48.816;44.624;2024-01-16T00:21:13;100849;;;0.5;100
49583;BME280;36329;48.816;44.624;2024-01-16T00:24:16;100859;;;0.4;100
49583;BME280;36329;48.816;44.624;2024-01-16T00:27:19;100869;;;0.5;100
49583;BME280;36329;48.816;44.624;2024-01-16T00:30:21;100864;;;0.5;100
49583;BME280;36329;48.816;44.624;2024-01-16T00:33:23;100876;;;0.6;100
49583;BME280;36329;48.816;44.624;2024-01-16T00:36:26;100868;;;0.5;100
49583;BME280;36329;48.816;44.624;2024-01-16T00:39:28;100861;;;0.6;100
49583;BME280;36329;48.816;44.624;2024-01-16T00:42:30;100868;;;0.6;100
49583;BME280;36329;48.816;44.624;2024-01-16T00:45:32;100864;;;0.6;100
49583;BME280;36329;48.816;44.624;2024-01-16T00:48:34;100866;;;0.7;100
49583;BME280;36329;48.816;44.624;2024-01-16T00:51:37;100861;;;0.7;100
49583;BME280;36329;48.816;44.624;2024-01-16T00:54:39;100846;;;0.6;100
49583;BME280;36329;48.816;44.624;2024-01-16T00:57:41;100846;;;0.7;100
49583;BME280;36329;48.816;44.624;2024-01-16T01:00:43;100841;;;0.7;100
49583;BME280;36329;48.816;44.624;2024-01-16T01:03:45;100851;;;0.7;100
49583;BME280;36329;48.816;44.624;2024-01-16T01:06:48;100849;;;0.6;100
49583;BME280;36329;48.816;44.624;2024-01-16T01:09:50;100847;;;0.6;100
49583;BME280;36329;48.816;44.624;2024-01-16T01:12:52;100852;;;0.7;100
49583;BME280;36329;48.816;44.624;2024-01-16T01:15:55;100846;;;0.7;100
49583;BME280;36329;48.816;44.624;2024-01-16T01:18:57;100846;;;0.6;100
49583;BME280;36329;48.816;44.624;2024-01-16T01:21:59;100847;;;0.7;100
49583;BME280;36329;48.816;44.624;2024-01-16T01:25:01;100850;;;0.7;100
49583;BME280;36329;48.816;44.624;2024-01-16T01:28:06;100845;;;0.7;100
49583;BME280;36329;48.816;44.624;2024-01-16T01:31:09;100848;;;0.8;100
49583;BME280;36329;48.816;44.624;2024-01-16T01:34:11;100849;;;0.8;100
49583;BME280;36329;48.816;44.624;2024-01-16T01:37:14;100842;;;0.9;100
49583;BME280;36329;48.816;44.624;2024-01-16T01:40:16;100843;;;1;100
49583;BME280;36329;48.816;44.624;2024-01-16T01:43:21;100847;;;1.1;100
49583;BME280;36329;48.816;44.624;2024-01-16T01:46:23;100835;;;1;100
49583;BME280;36329;48.816;44.624;2024-01-16T01:49:26;100850;;;1;100
49583;BME280;36329;48.816;44.624;2024-01-16T01:52:30;100847;;;1;100
49583;BME280;36329;48.816;44.624;2024-01-16T01:55:32;100853;;;1.1;100
49583;BME280;36329;48.816;44.624;2024-01-16T01:58:36;100858;;;1.1;100
49583;BME280;36329;48.816;44.624;2024-01-16T02:01:39;100849;;;1.1;100
49583;BME280;36329;48.816;44.624;2024-01-16T02:04:43;100853;;;1.1;100
49583;BME280;36329;48.816;44.624;2024-01-16T02:07:46;100853;;;1;100
49583;BME280;36329;48.816;44.624;2024-01-16T02:10:49;100856;;;1.1;100
49583;BME280;36329;48.816;44.624;2024-01-16T02:13:52;100860;;;1;100
49583;BME280;36329;48.816;44.624;2024-01-16T02:16:54;100863;;;1;100
49583;BME280;36329;48.816;44.624;2024-01-16T02:19:56;100863;;;1;100
49583;BME280;36329;48.816;44.624;2024-01-16T02:23:00;100864;;;0.9;100
49583;BME280;36329;48.816;44.624;2024-01-16T02:26:06;100862;;;0.8;100
49583;BME280;36329;48.816;44.624;2024-01-16T02:29:08;100855;;;0.8;100
49583;BME280;36329;48.816;44.624;2024-01-16T02:32:12;100873;;;0.8;100
49583;BME280;36329;48.816;44.624;2024-01-16T02:35:14;100868;;;0.7;100
49583;BME280;36329;48.816;44.624;2024-01-16T02:38:16;100863;;;0.6;100
49583;BME280;36329;48.816;44.624;2024-01-16T02:41:19;100869;;;0.6;100
49583;BME280;36329;48.816;44.624;2024-01-16T02:44:21;100891;;;0.6;100
49583;BME280;36329;48.816;44.624;2024-01-16T02:47:23;100877;;;0.5;100
49583;BME280;36329;48.816;44.624;2024-01-16T02:50:26;100891;;;0.5;100
49583;BME280;36329;48.816;44.624;2024-01-16T02:53:29;100882;;;0.4;100
49583;BME280;36329;48.816;44.624;2024-01-16T02:56:47;100874;;;0.4;100
49583;BME280;36329;48.816;44.624;2024-01-16T02:59:50;100875;;;0.4;100
49583;BME280;36329;48.816;44.624;2024-01-16T03:02:52;100878;;;0.2;100
49583;BME280;36329;48.816;44.624;2024-01-16T03:05:55;100860;;;0.1;100
49583;BME280;36329;48.816;44.624;2024-01-16T03:08:57;100859;;;0;100
49583;BME280;36329;48.816;44.624;2024-01-16T03:11:59;100863;;;-0.1;100
49583;BME280;36329;48.816;44.624;2024-01-16T03:15:02;100880;;;-0.2;100
49583;BME280;36329;48.816;44.624;2024-01-16T03:18:06;100870;;;-0.2;100
49583;BME280;36329;48.816;44.624;2024-01-16T03:21:10;100867;;;-0.3;100
49583;BME280;36329;48.816;44.624;2024-01-16T03:24:13;100860;;;-0.4;100
49583;BME280;36329;48.816;44.624;2024-01-16T03:27:15;100866;;;-0.5;100
49583;BME280;36329;48.816;44.624;2024-01-16T03:30:17;100864;;;-0.6;100
49583;BME280;36329;48.816;44.624;2024-01-16T03:33:19;100870;;;-0.7;100
49583;BME280;36329;48.816;44.624;2024-01-16T03:36:21;100864;;;-0.7;100
49583;BME280;36329;48.816;44.624;2024-01-16T03:39:24;100865;;;-0.7;100
49583;BME280;36329;48.816;44.624;2024-01-16T03:42:26;100870;;;-0.8;100
49583;BME280;36329;48.816;44.624;2024-01-16T03:45:29;100876;;;-0.8;100
49583;BME280;36329;48.816;44.624;2024-01-16T03:48:31;100881;;;-0.8;100
49583;BME280;36329;48.816;44.624;2024-01-16T03:51:33;100875;;;-0.9;100
49583;BME280;36329;48.816;44.624;2024-01-16T03:54:36;100867;;;-1.1;100
49583;BME280;36329;48.816;44.624;2024-01-16T03:57:38;100856;;;-1.2;100
49583;BME280;36329;48.816;44.624;2024-01-16T04:00:41;100879;;;-1.3;100
49583;BME280;36329;48.816;44.624;2024-01-16T04:03:43;100868;;;-1.3;100
49583;BME280;36329;48.816;44.624;2024-01-16T04:06:46;100874;;;-1.4;100
49583;BME280;36329;48.816;44.624;2024-01-16T04:09:48;100861;;;-1.5;100
49583;BME280;36329;48.816;44.624;2024-01-16T04:12:50;100860;;;-1.5;100
49583;BME280;36329;48.816;44.624;2024-01-16T04:15:53;100866;;;-1.6;100
49583;BME280;36329;48.816;44.624;2024-01-16T04:18:55;100861;;;-1.7;100
49583;BME280;36329;48.816;44.624;2024-01-16T04:21:57;100861;;;-1.6;100
49583;BME280;36329;48.816;44.624;2024-01-16T04:25:00;100874;;;-1.7;100
49583;BME280;36329;48.816;44.624;2024-01-16T04:28:02;100861;;;-1.7;100
49583;BME280;36329;48.816;44.624;2024-01-16T04:31:05;100844;;;-1.7;100
49583;BME280;36329;48.816;44.624;2024-01-16T04:34:08;100847;;;-1.8;100
49583;BME280;36329;48.816;44.624;2024-01-16T04:37:10;100855;;;-1.7;100
49583;BME280;36329;48.816;44.624;2024-01-16T04:40:14;100851;;;-1.7;100
49583;BME280;36329;48.816;44.624;2024-01-16T04:43:16;100858;;;-1.9;100
49583;BME280;36329;48.816;44.624;2024-01-16T04:46:19;100869;;;-1.9;100
49583;BME280;36329;48.816;44.624;2024-01-16T04:49:21;100853;;;-1.9;100
49583;BME280;36329;48.816;44.624;2024-01-16T04:52:24;100843;;;-2;100
49583;BME280;36329;48.816;44.624;2024-01-16T04:55:26;100864;;;-2;100
49583;BME280;36329;48.816;44.624;2024-01-16T04:58:28;100862;;;-2.2;100
49583;BME280;36329;48.816;44.624;2024-01-16T05:01:31;100853;;;-2.4;100
49583;BME280;36329;48.816;44.624;2024-01-16T05:04:36;100861;;;-2.5;100
49583;BME280;36329;48.816;44.624;2024-01-16T05:07:38;100862;;;-2.4;100
49583;BME280;36329;48.816;44.624;2024-01-16T05:10:41;100848;;;-2.5;100
49583;BME280;36329;48.816;44.624;2024-01-16T05:13:43;100861;;;-2.5;100
49583;BME280;36329;48.816;44.624;2024-01-16T05:16:45;100846;;;-2.5;100
49583;BME280;36329;48.816;44.624;2024-01-16T05:19:47;100854;;;-2.6;100
49583;BME280;36329;48.816;44.624;2024-01-16T05:22:50;100851;;;-2.6;100
49583;BME280;36329;48.816;44.624;2024-01-16T05:25:52;100833;;;-2.6;100
49583;BME280;36329;48.816;44.624;2024-01-16T05:28:54;100823;;;-2.6;100
49583;BME280;36329;48.816;44.624;2024-01-16T05:31:57;100839;;;-2.7;100
49583;BME280;36329;48.816;44.624;2024-01-16T05:34:59;100854;;;-2.8;100
49583;BME280;36329;48.816;44.624;2024-01-16T05:38:01;100847;;;-3;100
49583;BME280;36329;48.816;44.624;2024-01-16T05:41:04;100839;;;-3;100
49583;BME280;36329;48.816;44.624;2024-01-16T05:44:06;100851;;;-3;100
49583;BME280;36329;48.816;44.624;2024-01-16T05:47:08;100835;;;-3.1;100
49583;BME280;36329;48.816;44.624;2024-01-16T05:50:10;100844;;;-3;100
49583;BME280;36329;48.816;44.624;2024-01-16T05:53:14;100826;;;-3;100
49583;BME280;36329;48.816;44.624;2024-01-16T05:56:16;100826;;;-3;100
49583;BME280;36329;48.816;44.624;2024-01-16T05:59:18;100828;;;-3;100
49583;BME280;36329;48.816;44.624;2024-01-16T06:02:22;100820;;;-3;100
49583;BME280;36329;48.816;44.624;2024-01-16T06:05:24;100839;;;-3;100
49583;BME280;36329;48.816;44.624;2024-01-16T06:08:26;100833;;;-3;100
49583;BME280;36329;48.816;44.624;2024-01-16T06:11:30;100842;;;-3;100
49583;BME280;36329;48.816;44.624;2024-01-16T06:14:33;100833;;;-2.9;100
49583;BME280;36329;48.816;44.624;2024-01-16T06:17:35;100830;;;-2.9;100
49583;BME280;36329;48.816;44.624;2024-01-16T06:20:37;100833;;;-2.9;100
49583;BME280;36329;48.816;44.624;2024-01-16T06:23:40;100833;;;-2.7;100
49583;BME280;36329;48.816;44.624;2024-01-16T06:26:43;100817;;;-2.6;100
49583;BME280;36329;48.816;44.624;2024-01-16T06:29:45;100822;;;-2.5;100
49583;BME280;36329;48.816;44.624;2024-01-16T06:32:48;100821;;;-2.6;100
49583;BME280;36329;48.816;44.624;2024-01-16T06:35:51;100828;;;-2.7;100
49583;BME280;36329;48.816;44.624;2024-01-16T06:38:53;100847;;;-2.5;100
49583;BME280;36329;48.816;44.624;2024-01-16T06:41:55;100834;;;-2.4;100
49583;BME280;36329;48.816;44.624;2024-01-16T06:44:58;100813;;;-2.3;100
49583;BME280;36329;48.816;44.624;2024-01-16T06:48:00;100801;;;-2.3;100
49583;BME280;36329;48.816;44.624;2024-01-16T06:51:02;100799;;;-2.3;100
49583;BME280;36329;48.816;44.624;2024-01-16T06:54:04;100801;;;-2.2;100
49583;BME280;36329;48.816;44.624;2024-01-16T06:57:07;100799;;;-2.3;100
49583;BME280;36329;48.816;44.624;2024-01-16T07:00:09;100783;;;-2.3;100
49583;BME280;36329;48.816;44.624;2024-01-16T07:03:12;100802;;;-2.2;100
49583;BME280;36329;48.816;44.624;2024-01-16T07:06:15;100800;;;-2.3;100
49583;BME280;36329;48.816;44.624;2024-01-16T07:09:17;100795;;;-2.2;100
49583;BME280;36329;48.816;44.624;2024-01-16T07:12:19;100791;;;-2.2;100
49583;BME280;36329;48.816;44.624;2024-01-16T07:15:21;100801;;;-2.3;100
49583;BME280;36329;48.816;44.624;2024-01-16T07:18:24;100816;;;-2.1;100
49583;BME280;36329;48.816;44.624;2024-01-16T07:21:26;100798;;;-1.9;100
49583;BME280;36329;48.816;44.624;2024-01-16T07:24:28;100777;;;-1.9;100
49583;BME280;36329;48.816;44.624;2024-01-16T07:27:31;100765;;;-1.7;100
49583;BME280;36329;48.816;44.624;2024-01-16T07:30:33;100785;;;-1.6;100
49583;BME280;36329;48.816;44.624;2024-01-16T07:33:35;100773;;;-1.5;100
49583;BME280;36329;48.816;44.624;2024-01-16T07:36:38;100786;;;-1.6;100
49583;BME280;36329;48.816;44.624;2024-01-16T07:39:40;100775;;;-1.6;100
49583;BME280;36329;48.816;44.624;2024-01-16T07:42:42;100756;;;-1.6;99.5
49583;BME280;36329;48.816;44.624;2024-01-16T07:45:44;100763;;;-1.2;97
49583;BME280;36329;48.816;44.624;2024-01-16T07:48:47;100742;;;-1.2;96.2
49583;BME280;36329;48.816;44.624;2024-01-16T07:51:49;100732;;;-1.2;96.3
49583;BME280;36329;48.816;44.624;2024-01-16T07:54:51;100730;;;-1.1;96.1
49583;BME280;36329;48.816;44.624;2024-01-16T07:57:54;100722;;;-0.8;95.4
49583;BME280;36329;48.816;44.624;2024-01-16T08:00:56;100738;;;-0.9;96.2
49583;BME280;36329;48.816;44.624;2024-01-16T08:03:58;100734;;;-1;97.2
49583;BME280;36329;48.816;44.624;2024-01-16T08:07:01;100735;;;-0.9;98.8
49583;BME280;36329;48.816;44.624;2024-01-16T08:10:05;100714;;;-0.9;100
49583;BME280;36329;48.816;44.624;2024-01-16T08:13:08;100734;;;-0.7;100
49583;BME280;36329;48.816;44.624;2024-01-16T08:16:10;100720;;;-0.7;100
49583;BME280;36329;48.816;44.624;2024-01-16T08:19:13;100724;;;-0.5;100
49583;BME280;36329;48.816;44.624;2024-01-16T08:22:16;100719;;;-0.4;100
49583;BME280;36329;48.816;44.624;2024-01-16T08:25:18;100699;;;-0.3;100
49583;BME280;36329;48.816;44.624;2024-01-16T08:28:20;100723;;;-0.2;100
49583;BME280;36329;48.816;44.624;2024-01-16T08:31:23;100692;;;0.3;100
49583;BME280;36329;48.816;44.624;2024-01-16T08:34:25;100685;;;2.8;90.7
49583;BME280;36329;48.816;44.624;2024-01-16T08:37:27;100700;;;1.1;99.9
49583;BME280;36329;48.816;44.624;2024-01-16T08:40:30;100676;;;0.9;100
49583;BME280;36329;48.816;44.624;2024-01-16T08:43:32;100668;;;0.7;100
49583;BME280;36329;48.816;44.624;2024-01-16T08:46:34;100661;;;0.6;100
49583;BME280;36329;48.816;44.624;2024-01-16T08:49:36;100638;;;0.5;100
49583;BME280;36329;48.816;44.624;2024-01-16T08:52:41;100655;;;0.6;100
49583;BME280;36329;48.816;44.624;2024-01-16T08:55:44;100652;;;0.6;100
49583;BME280;36329;48.816;44.624;2024-01-16T08:58:47;100633;;;0.5;100
49583;BME280;36329;48.816;44.624;2024-01-16T09:01:49;100630;;;0.6;100
49583;BME280;36329;48.816;44.624;2024-01-16T09:04:51;100619;;;0.6;100
49583;BME280;36329;48.816;44.624;2024-01-16T09:07:54;100659;;;0.7;100
49583;BME280;36329;48.816;44.624;2024-01-16T09:10:56;100633;;;0.6;100
49583;BME280;36329;48.816;44.624;2024-01-16T09:13:59;100612;;;0.6;100
49583;BME280;36329;48.816;44.624;2024-01-16T09:17:01;100626;;;0.7;100
49583;BME280;36329;48.816;44.624;2024-01-16T09:20:05;100609;;;0.8;100
49583;BME280;36329;48.816;44.624;2024-01-16T09:23:08;100608;;;0.8;100
49583;BME280;36329;48.816;44.624;2024-01-16T09:26:11;100593;;;0.9;100
49583;BME280;36329;48.816;44.624;2024-01-16T09:29:13;100578;;;1.2;100
49583;BME280;36329;48.816;44.624;2024-01-16T09:32:16;100580;;;1.4;100
49583;BME280;36329;48.816;44.624;2024-01-16T09:35:18;100577;;;1.1;100
49583;BME280;36329;48.816;44.624;2024-01-16T09:38:20;100578;;;1.3;100
49583;BME280;36329;48.816;44.624;2024-01-16T09:41:23;100587;;;1.1;100
49583;BME280;36329;48.816;44.624;2024-01-16T09:44:25;100560;;;0.9;100
49583;BME280;36329;48.816;44.624;2024-01-16T09:47:30;100558;;;1;100
49583;BME280;36329;48.816;44.624;2024-01-16T09:50:32;100537;;;1;100
49583;BME280;36329;48.816;44.624;2024-01-16T09:53:35;100554;;;0.9;100
49583;BME280;36329;48.816;44.624;2024-01-16T09:56:41;100561;;;0.8;100
49583;BME280;36329;48.816;44.624;2024-01-16T09:59:44;100530;;;0.9;100
49583;BME280;36329;48.816;44.624;2024-01-16T10:02:47;100552;;;0.9;100
49583;BME280;36329;48.816;44.624;2024-01-16T10:05:50;100512;;;0.9;100
49583;BME280;36329;48.816;44.624;2024-01-16T10:08:52;100524;;;1;100
49583;BME280;36329;48.816;44.624;2024-01-16T10:11:55;100526;;;0.9;100
49583;BME280;36329;48.816;44.624;2024-01-16T10:14:58;100503;;;0.8;100
49583;BME280;36329;48.816;44.624;2024-01-16T10:18:00;100517;;;0.9;100
49583;BME280;36329;48.816;44.624;2024-01-16T10:21:03;100517;;;1;100
49583;BME280;36329;48.816;44.624;2024-01-16T10:24:11;100469;;;0.9;100
49583;BME280;36329;48.816;44.624;2024-01-16T10:27:16;100478;;;0.9;100
49583;BME280;36329;48.816;44.624;2024-01-16T10:30:21;100477;;;0.9;100
49583;BME280;36329;48.816;44.624;2024-01-16T10:33:26;100464;;;0.9;100
49583;BME280;36329;48.816;44.624;2024-01-16T10:36:29;100478;;;0.8;100
49583;BME280;36329;48.816;44.624;2024-01-16T10:39:33;100508;;;0.8;100
49583;BME280;36329;48.816;44.624;2024-01-16T10:42:37;100470;;;0.7;100
49583;BME280;36329;48.816;44.624;2024-01-16T10:46:09;100472;;;0.8;100
49583;BME280;36329;48.816;44.624;2024-01-16T10:49:38;100462;;;0.8;100
49583;BME280;36329;48.816;44.624;2024-01-16T10:52:46;100488;;;0.8;100
49583;BME280;36329;48.816;44.624;2024-01-16T10:55:57;100496;;;0.8;100
49583;BME280;36329;48.816;44.624;2024-01-16T10:59:08;100468;;;0.8;100
49583;BME280;36329;48.816;44.624;2024-01-16T11:02:20;100474;;;0.8;100
49583;BME280;36329;48.816;44.624;2024-01-16T11:05:32;100474;;;0.8;100
49583;BME280;36329;48.816;44.624;2024-01-16T11:08:37;100478;;;0.8;100
49583;BME280;36329;48.816;44.624;2024-01-16T11:11:42;100502;;;0.8;100
49583;BME280;36329;48.816;44.624;2024-01-16T11:14:49;100483;;;0.8;100
49583;BME280;36329;48.816;44.624;2024-01-16T11:17:58;100457;;;0.8;100
49583;BME280;36329;48.816;44.624;2024-01-16T11:21:10;100446;;;0.8;100
49583;BME280;36329;48.816;44.624;2024-01-16T11:24:21;100520;;;0.8;100
49583;BME280;36329;48.816;44.624;2024-01-16T11:27:26;100447;;;0.8;100
49583;BME280;36329;48.816;44.624;2024-01-16T11:30:49;100500;;;0.8;100
49583;BME280;36329;48.816;44.624;2024-01-16T11:33:51;100491;;;0.8;100
49583;BME280;36329;48.816;44.624;2024-01-16T11:36:54;100499;;;0.8;100
49583;BME280;36329;48.816;44.624;2024-01-16T11:40:20;100480;;;0.8;100
49583;BME280;36329;48.816;44.624;2024-01-16T11:43:36;100479;;;0.8;100
49583;BME280;36329;48.816;44.624;2024-01-16T11:50:11;100467;;;0.8;100
49583;BME280;36329;48.816;44.624;2024-01-16T11:53:33;100459;;;0.7;100
49583;BME280;36329;48.816;44.624;2024-01-16T11:56:57;100471;;;0.7;100
49583;BME280;36329;48.816;44.624;2024-01-16T12:00:05;100476;;;0.7;100
49583;BME280;36329;48.816;44.624;2024-01-16T12:03:08;100460;;;0.6;100
49583;BME280;36329;48.816;44.624;2024-01-16T12:06:11;100447;;;0.6;100
49583;BME280;36329;48.816;44.624;2024-01-16T12:09:13;100501;;;0.6;100
49583;BME280;36329;48.816;44.624;2024-01-16T12:12:15;100478;;;0.5;100
49583;BME280;36329;48.816;44.624;2024-01-16T12:15:19;100429;;;0.5;100
49583;BME280;36329;48.816;44.624;2024-01-16T12:18:21;100463;;;0.5;100
49583;BME280;36329;48.816;44.624;2024-01-16T12:21:24;100473;;;0.5;100
49583;BME280;36329;48.816;44.624;2024-01-16T12:24:26;100460;;;0.5;100
49583;BME280;36329;48.816;44.624;2024-01-16T12:27:29;100448;;;0.5;100
49583;BME280;36329;48.816;44.624;2024-01-16T12:30:32;100473;;;0.5;100
49583;BME280;36329;48.816;44.624;2024-01-16T12:33:35;100494;;;0.5;100
49583;BME280;36329;48.816;44.624;2024-01-16T12:36:37;100502;;;0.4;100
49583;BME280;36329;48.816;44.624;2024-01-16T12:39:40;100466;;;0.4;100
49583;BME280;36329;48.816;44.624;2024-01-16T12:42:43;100483;;;0.4;100
49583;BME280;36329;48.816;44.624;2024-01-16T12:45:45;100433;;;0.4;100
49583;BME280;36329;48.816;44.624;2024-01-16T12:48:48;100441;;;0.4;100
49583;BME280;36329;48.816;44.624;2024-01-16T12:51:51;100456;;;0.4;100
49583;BME280;36329;48.816;44.624;2024-01-16T12:54:59;100426;;;0.4;100
49583;BME280;36329;48.816;44.624;2024-01-16T12:58:17;100433;;;0.4;100
49583;BME280;36329;48.816;44.624;2024-01-16T13:01:23;100446;;;0.4;100
49583;BME280;36329;48.816;44.624;2024-01-16T13:04:25;100424;;;0.5;100
49583;BME280;36329;48.816;44.624;2024-01-16T13:07:28;100409;;;0.6;100
49583;BME280;36329;48.816;44.624;2024-01-16T13:10:30;100403;;;0.7;100
49583;BME280;36329;48.816;44.624;2024-01-16T13:13:34;100388;;;0.7;100
49583;BME280;36329;48.816;44.624;2024-01-16T13:16:36;100393;;;0.8;100
49583;BME280;36329;48.816;44.624;2024-01-16T13:19:39;100381;;;0.8;100
49583;BME280;36329;48.816;44.624;2024-01-16T13:22:41;100393;;;0.8;100
49583;BME280;36329;48.816;44.624;2024-01-16T13:25:45;100423;;;0.9;100
49583;BME280;36329;48.816;44.624;2024-01-16T13:28:47;100385;;;0.9;100
49583;BME280;36329;48.816;44.624;2024-01-16T13:31:49;100400;;;1;100
49583;BME280;36329;48.816;44.624;2024-01-16T13:34:52;100382;;;1;100
49583;BME280;36329;48.816;44.624;2024-01-16T13:37:54;100420;;;1;100
49583;BME280;36329;48.816;44.624;2024-01-16T13:40:56;100387;;;1.1;100
49583;BME280;36329;48.816;44.624;2024-01-16T13:43:58;100376;;;1.1;100
49583;BME280;36329;48.816;44.624;2024-01-16T13:47:01;100359;;;1.2;100
49583;BME280;36329;48.816;44.624;2024-01-16T13:50:03;100355;;;1.2;100
49583;BME280;36329;48.816;44.624;2024-01-16T13:53:06;100364;;;1.3;100
49583;BME280;36329;48.816;44.624;2024-01-16T13:56:08;100370;;;1.3;100
49583;BME280;36329;48.816;44.624;2024-01-16T13:59:11;100350;;;1.2;100
49583;BME280;36329;48.816;44.624;2024-01-16T14:02:14;100345;;;1.3;100
49583;BME280;36329;48.816;44.624;2024-01-16T14:05:18;100342;;;1.4;100
49583;BME280;36329;48.816;44.624;2024-01-16T14:08:21;100338;;;1.4;100
49583;BME280;36329;48.816;44.624;2024-01-16T14:11:23;100340;;;1.4;100
49583;BME280;36329;48.816;44.624;2024-01-16T14:14:25;100344;;;1.4;100
49583;BME280;36329;48.816;44.624;2024-01-16T14:17:27;100340;;;1.4;100
49583;BME280;36329;48.816;44.624;2024-01-16T14:20:29;100354;;;1.5;100
49583;BME280;36329;48.816;44.624;2024-01-16T14:23:32;100328;;;1.6;100
49583;BME280;36329;48.816;44.624;2024-01-16T14:26:34;100329;;;1.6;100
49583;BME280;36329;48.816;44.624;2024-01-16T14:29:37;100330;;;1.6;100
49583;BME280;36329;48.816;44.624;2024-01-16T14:32:41;100330;;;1.6;100
49583;BME280;36329;48.816;44.624;2024-01-16T14:35:43;100314;;;1.6;100
49583;BME280;36329;48.816;44.624;2024-01-16T14:38:46;100323;;;1.6;100
49583;BME280;36329;48.816;44.624;2024-01-16T14:41:48;100298;;;1.6;100
49583;BME280;36329;48.816;44.624;2024-01-16T14:44:50;100294;;;1.6;100
49583;BME280;36329;48.816;44.624;2024-01-16T14:47:53;100294;;;1.6;100
49583;BME280;36329;48.816;44.624;2024-01-16T14:50:55;100294;;;1.7;100
49583;BME280;36329;48.816;44.624;2024-01-16T14:53:58;100272;;;1.7;100
49583;BME280;36329;48.816;44.624;2024-01-16T14:57:00;100278;;;1.7;100
49583;BME280;36329;48.816;44.624;2024-01-16T15:00:02;100255;;;1.7;100
49583;BME280;36329;48.816;44.624;2024-01-16T15:03:07;100268;;;1.7;100
49583;BME280;36329;48.816;44.624;2024-01-16T15:06:09;100251;;;1.7;100
49583;BME280;36329;48.816;44.624;2024-01-16T15:09:12;100248;;;1.8;100
49583;BME280;36329;48.816;44.624;2024-01-16T15:12:15;100225;;;1.8;100
49583;BME280;36329;48.816;44.624;2024-01-16T15:15:17;100243;;;1.8;100
49583;BME280;36329;48.816;44.624;2024-01-16T15:18:19;100223;;;1.8;100
49583;BME280;36329;48.816;44.624;2024-01-16T15:21:22;100214;;;1.8;100
49583;BME280;36329;48.816;44.624;2024-01-16T15:24:25;100242;;;1.8;100
49583;BME280;36329;48.816;44.624;2024-01-16T15:27:28;100181;;;1.8;100
49583;BME280;36329;48.816;44.624;2024-01-16T15:30:31;100181;;;1.8;100
49583;BME280;36329;48.816;44.624;2024-01-16T15:33:33;100228;;;1.8;100
49583;BME280;36329;48.816;44.624;2024-01-16T15:36:36;100222;;;1.8;100
49583;BME280;36329;48.816;44.624;2024-01-16T15:39:38;100201;;;1.8;100
49583;BME280;36329;48.816;44.624;2024-01-16T15:42:41;100205;;;1.8;100
49583;BME280;36329;48.816;44.624;2024-01-16T15:45:44;100179;;;1.8;100
49583;BME280;36329;48.816;44.624;2024-01-16T15:48:46;100202;;;1.8;100
49583;BME280;36329;48.816;44.624;2024-01-16T15:51:49;100180;;;1.9;100
49583;BME280;36329;48.816;44.624;2024-01-16T15:54:52;100207;;;1.9;100
49583;BME280;36329;48.816;44.624;2024-01-16T15:57:54;100182;;;1.9;100
49583;BME280;36329;48.816;44.624;2024-01-16T16:00:57;100234;;;1.9;100
49583;BME280;36329;48.816;44.624;2024-01-16T16:04:00;100232;;;1.9;100
49583;BME280;36329;48.816;44.624;2024-01-16T16:07:05;100253;;;1.9;100
49583;BME280;36329;48.816;44.624;2024-01-16T16:10:09;100202;;;1.9;100
49583;BME280;36329;48.816;44.624;2024-01-16T16:13:12;100194;;;1.8;100
49583;BME280;36329;48.816;44.624;2024-01-16T16:16:14;100237;;;1.8;100
49583;BME280;36329;48.816;44.624;2024-01-16T16:22:28;100194;;;1.8;100
49583;BME280;36329;48.816;44.624;2024-01-16T16:25:30;100263;;;1.7;100
49583;BME280;36329;48.816;44.624;2024-01-16T16:28:32;100216;;;1.7;100
49583;BME280;36329;48.816;44.624;2024-01-16T16:31:36;100238;;;1.6;100
49583;BME280;36329;48.816;44.624;2024-01-16T16:34:38;100243;;;1.5;100
49583;BME280;36329;48.816;44.624;2024-01-16T16:37:46;100240;;;1.5;100
49583;BME280;36329;48.816;44.624;2024-01-16T16:40:49;100228;;;1.4;100
49583;BME280;36329;48.816;44.624;2024-01-16T16:43:52;100197;;;1.3;100
49583;BME280;36329;48.816;44.624;2024-01-16T16:46:55;100217;;;1.3;100
49583;BME280;36329;48.816;44.624;2024-01-16T16:49:57;100264;;;1.2;100
49583;BME280;36329;48.816;44.624;2024-01-16T16:52:59;100175;;;1.1;100
49583;BME280;36329;48.816;44.624;2024-01-16T16:56:02;100182;;;1.1;100
49583;BME280;36329;48.816;44.624;2024-01-16T16:59:05;100212;;;1.1;100
49583;BME280;36329;48.816;44.624;2024-01-16T17:02:08;100171;;;1;100
49583;BME280;36329;48.816;44.624;2024-01-16T17:05:11;100200;;;1;100
49583;BME280;36329;48.816;44.624;2024-01-16T17:08:14;100204;;;1;100
49583;BME280;36329;48.816;44.624;2024-01-16T17:11:16;100272;;;1;100
49583;BME280;36329;48.816;44.624;2024-01-16T17:14:19;100185;;;0.9;100
49583;BME280;36329;48.816;44.624;2024-01-16T17:17:22;100177;;;0.9;100
49583;BME280;36329;48.816;44.624;2024-01-16T17:20:24;100197;;;0.9;100
49583;BME280;36329;48.816;44.624;2024-01-16T17:23:27;100145;;;0.9;100
49583;BME280;36329;48.816;44.624;2024-01-16T17:26:30;100184;;;0.9;100